Carmel Valley, CA

2:24 PM PDT on October 25, 2014 (GMT -0700)
Hastings-Finch Creek | Change Station
CLOSE
Current Station
Personal Weather Station
Location: Carmel Valley, CA
Elevation: 1578 ft
Nearby Weather Stations

Elev 1578 ft 36.38 °N, 121.57 °W | Updated 9 minutes ago

Mostly Cloudy
Mostly Cloudy
65.5 °F
Feels Like 65.5 °F
N
0.0
Wind Variable Wind from South
Gusts 0.0 mph

Today
High -- | Low -- °F
--% Chance of Precip.
Yesterday
High -- | Low -- °F
Precip. -- in
7:23 AM 6:17 PM
Waxing Crescent, 4% visible
Pressure 30.14 in
Visibility 10.0 miles
Clouds Scattered Clouds 2300 ft
Scattered Clouds 3000 ft
Dew Point 57 °F
Humidity 74%
Rainfall 0.13 in
Snow Depth Not available.
UV 4 out of 12
Pollen .10 out of 12
Air Quality Not available.
Flu Activity Sporadic
METAR KMRY 252054Z 21007KT 10SM SCT023 SCT030 20/14 A3011 RMK AO2 SLP206 T02000139 51007

More Conditions Fewer Conditions

Pressure 30.14 in
Visibility 10.0 miles
Clouds Scattered Clouds 2300 ft
Scattered Clouds 3000 ft
Dew Point 57 °F
Humidity 74%
Rainfall 0.13 in
Snow Depth Not available.
UV 4 out of 12
Pollen .10 out of 12
Air Quality Not available.
Flu Activity Sporadic
METAR KMRY 252054Z 21007KT 10SM SCT023 SCT030 20/14 A3011 RMK AO2 SLP206 T02000139 51007

More Conditions Fewer Conditions

10-Day Weather Forecast

Almanac

Astronomy

Oct. 25, 2014 Rise Set
Actual Time 7:23 AM PDT 6:17 PM PDT
Civil Twilight 6:56 AM PDT 6:44 PM PDT
Nautical Twilight 6:26 AM PDT 7:14 PM PDT
Astronomical Twilight 5:56 AM PDT 7:44 PM PDT
Moon 9:05 AM PDT 7:47 PM PDT
Length of Visible Light 11h 47m
Length of Day
10h 54m
Tomorrow will be 2m 8s shorter.
Waxing Crescent, 4% of the Moon is Illuminated
Today
Waxing Crescent
Oct 30
First Quarter
Nov 6
Full
Nov 14
Last Quarter
Nov 22
New

Today's Extremes

State Highs State Lows

Community

WunderPhotos

Upload Photos

1,765,001 photos uploaded!

Nearby

Snow Depth

Station Depth Elevation
Leavitt Lake 0 in 9400 ft
Sonora Pass 0 in 8800 ft
Virginia Lakes Ridge 0 in 9200 ft
Leavitt Meadows 0 in 7200 ft
Summit Meadow 0 in 9122 ft

Earthquake Activity

City Distance Mag. Time & Date
Antioch, California 115 miles 2.7 6:42 AM PDT
2014-10-25
Coalinga, California 70 miles 2.5 11:01 PM PDT
2014-10-24
Solvang, California 160 miles 2.6 5:35 PM PDT
2014-10-22
Kettleman City, California 111 miles 2.5 9:08 AM PDT
2014-10-22
Minimum magnitude displayed is 2.5.

Coastal Water Temperatures

Place Temperature
Monterey, CA 63.0 °F
Port San Luis, CA 63.0 °F

Nearby Weather Stations